CheckWX is a tool to help pilots better visualize weather data.  It is not intended as a substitute for an official pre-flight weather briefing.

12:19:42 UTC

KAVL TAF
Asheville Regional Airport
Asheville, North Carolina, USA
KAVL 161132Z 1612/1712 15004KT 3SM -SHRA BR BKN003 OVC006 FM161400 30006KT 4SM BR VCSH BKN012 FM161500 33010KT 6SM BR VCSH SCT020 BKN030 FM161700 34016G26KT P6SM SCT050 FM170700 33012G22KT P6SM FEW100

Oct-16@
12:00 UTC

Oct-16 @ 12:00 UTC

Oct-16@
14:00 UTC

Oct-16 @ 14:00 UTC

KAVL 161132Z 1612/1712 15004KT 3SM -SHRA BR BKN003 OVC006
Wind
  • 150° at 4 KTS
Conditions
Light Rain, Mist
Cloud Levels
  • Broken at 300' AGL
  • Overcast at 600' AGL

Oct-16@
14:00 UTC

Oct-16 @ 14:00 UTC

Oct-16@
15:00 UTC

Oct-16 @ 15:00 UTC

FM161400 30006KT 4SM BR VCSH BKN012

From

From Standard forecast or significant change

Wind
  • 300° at 6 KTS
Conditions
Mist
Cloud Levels
  • Broken at 1,200' AGL

Oct-16@
15:00 UTC

Oct-16 @ 15:00 UTC

Oct-16@
17:00 UTC

Oct-16 @ 17:00 UTC

FM161500 33010KT 6SM BR VCSH SCT020 BKN030

From

From Standard forecast or significant change

Wind
  • 330° at 10 KTS
Conditions
Mist
Cloud Levels
  • Scattered at 2,000' AGL
  • Broken at 3,000' AGL

Oct-16@
17:00 UTC

Oct-16 @ 17:00 UTC

Oct-17@
07:00 UTC

Oct-17 @ 07:00 UTC

FM161700 34016G26KT P6SM SCT050

From

From Standard forecast or significant change

Wind
  • 340° at 16 KTS
  • {Gusting to 26 KTS
Cloud Levels
  • Scattered at 5,000' AGL

Oct-17@
07:00 UTC

Oct-17 @ 07:00 UTC

Oct-17@
12:00 UTC

Oct-17 @ 12:00 UTC

FM170700 33012G22KT P6SM FEW100

From

From Standard forecast or significant change

Wind
  • 330° at 12 KTS
  • {Gusting to 22 KTS
Cloud Levels
  • Few at 10,000' AGL